sensor_id;sensor_type;location;lat;lon;timestamp;pressure;altitude;pressure_sealevel;temperature;humidity
41044;BME280;51680;49.806;18.774;2023-02-19T00:00:51;97220.25;;;10.69;82.09
41044;BME280;51680;49.806;18.774;2023-02-19T00:03:54;97224.94;;;10.64;82.71
41044;BME280;51680;49.806;18.774;2023-02-19T00:06:56;97230.75;;;10.55;83.20
41044;BME280;51680;49.806;18.774;2023-02-19T00:09:59;97239.94;;;10.48;82.99
41044;BME280;51680;49.806;18.774;2023-02-19T00:13:01;97236.78;;;10.43;83.67
41044;BME280;51680;49.806;18.774;2023-02-19T00:16:04;97232.19;;;10.34;84.27
41044;BME280;51680;49.806;18.774;2023-02-19T00:19:09;97226.22;;;10.32;83.96
41044;BME280;51680;49.806;18.774;2023-02-19T00:22:12;97228.28;;;10.27;84.31
41044;BME280;51680;49.806;18.774;2023-02-19T00:25:15;97224.13;;;10.25;84.30
41044;BME280;51680;49.806;18.774;2023-02-19T00:28:17;97218.28;;;10.21;84.12
41044;BME280;51680;49.806;18.774;2023-02-19T00:31:21;97226.28;;;10.18;84.22
41044;BME280;51680;49.806;18.774;2023-02-19T00:34:23;97229.09;;;10.15;84.38
41044;BME280;51680;49.806;18.774;2023-02-19T00:37:25;97234.31;;;10.15;84.63
41044;BME280;51680;49.806;18.774;2023-02-19T00:40:28;97219.59;;;10.14;84.21
41044;BME280;51680;49.806;18.774;2023-02-19T00:43:30;97217.91;;;10.13;84.62
41044;BME280;51680;49.806;18.774;2023-02-19T00:46:33;97211.66;;;10.16;84.80
41044;BME280;51680;49.806;18.774;2023-02-19T00:49:36;97217.50;;;10.19;84.59
41044;BME280;51680;49.806;18.774;2023-02-19T00:52:38;97218.81;;;10.26;84.24
41044;BME280;51680;49.806;18.774;2023-02-19T00:55:41;97209.75;;;10.32;84.08
41044;BME280;51680;49.806;18.774;2023-02-19T00:58:43;97207.97;;;10.32;84.26
41044;BME280;51680;49.806;18.774;2023-02-19T01:01:45;97207.97;;;10.32;84.48
41044;BME280;51680;49.806;18.774;2023-02-19T01:04:48;97197.75;;;10.29;83.84
41044;BME280;51680;49.806;18.774;2023-02-19T01:07:50;97185.41;;;10.31;84.63
41044;BME280;51680;49.806;18.774;2023-02-19T01:10:54;97186.66;;;10.38;84.26
41044;BME280;51680;49.806;18.774;2023-02-19T01:13:57;97177.72;;;10.42;84.21
41044;BME280;51680;49.806;18.774;2023-02-19T01:16:58;97177.31;;;10.48;84.08
41044;BME280;51680;49.806;18.774;2023-02-19T01:20:00;97184.22;;;10.49;83.50
41044;BME280;51680;49.806;18.774;2023-02-19T01:23:02;97187.34;;;10.54;83.82
41044;BME280;51680;49.806;18.774;2023-02-19T01:26:08;97182.31;;;10.51;83.66
41044;BME280;51680;49.806;18.774;2023-02-19T01:29:11;97181.06;;;10.44;83.83
41044;BME280;51680;49.806;18.774;2023-02-19T01:32:12;97178.13;;;10.36;84.07
41044;BME280;51680;49.806;18.774;2023-02-19T01:35:14;97171.78;;;10.40;84.06
41044;BME280;51680;49.806;18.774;2023-02-19T01:38:16;97161.53;;;10.37;84.25
41044;BME280;51680;49.806;18.774;2023-02-19T01:41:21;97158.91;;;10.25;84.50
41044;BME280;51680;49.806;18.774;2023-02-19T01:45:12;97163.16;;;10.26;85.09
41044;BME280;51680;49.806;18.774;2023-02-19T01:48:20;97163.31;;;10.24;84.80
41044;BME280;51680;49.806;18.774;2023-02-19T01:51:25;97165.41;;;10.32;84.78
41044;BME280;51680;49.806;18.774;2023-02-19T01:54:29;97154.63;;;10.36;84.21
41044;BME280;51680;49.806;18.774;2023-02-19T01:57:38;97162.06;;;10.42;84.44
41044;BME280;51680;49.806;18.774;2023-02-19T02:00:42;97150.38;;;10.48;83.95
41044;BME280;51680;49.806;18.774;2023-02-19T02:03:46;97151.09;;;10.50;83.75
41044;BME280;51680;49.806;18.774;2023-02-19T02:06:51;97151.94;;;10.50;83.88
41044;BME280;51680;49.806;18.774;2023-02-19T02:09:53;97139.94;;;10.48;83.77
41044;BME280;51680;49.806;18.774;2023-02-19T02:13:14;97150.56;;;10.45;83.55
41044;BME280;51680;49.806;18.774;2023-02-19T02:16:23;97130.34;;;10.48;83.67
41044;BME280;51680;49.806;18.774;2023-02-19T02:19:47;97138.38;;;10.45;83.70
41044;BME280;51680;49.806;18.774;2023-02-19T02:22:59;97139.59;;;10.40;83.78
41044;BME280;51680;49.806;18.774;2023-02-19T02:26:31;97143.88;;;10.41;84.07
41044;BME280;51680;49.806;18.774;2023-02-19T02:29:53;97129.06;;;10.41;83.96
41044;BME280;51680;49.806;18.774;2023-02-19T02:33:14;97128.03;;;10.44;83.74
41044;BME280;51680;49.806;18.774;2023-02-19T02:36:22;97119.25;;;10.45;83.44
41044;BME280;51680;49.806;18.774;2023-02-19T02:39:26;97123.66;;;10.44;83.91
41044;BME280;51680;49.806;18.774;2023-02-19T02:42:29;97125.53;;;10.42;83.44
41044;BME280;51680;49.806;18.774;2023-02-19T02:45:42;97117.50;;;10.45;83.68
41044;BME280;51680;49.806;18.774;2023-02-19T02:48:54;97111.34;;;10.46;84.12
41044;BME280;51680;49.806;18.774;2023-02-19T02:51:58;97097.44;;;10.46;83.76
41044;BME280;51680;49.806;18.774;2023-02-19T02:55:22;97096.81;;;10.30;84.08
41044;BME280;51680;49.806;18.774;2023-02-19T02:58:24;97079.06;;;10.22;84.20
41044;BME280;51680;49.806;18.774;2023-02-19T03:01:33;97078.34;;;10.08;84.50
41044;BME280;51680;49.806;18.774;2023-02-19T03:04:58;97075.28;;;10.01;84.97
41044;BME280;51680;49.806;18.774;2023-02-19T03:08:18;97068.47;;;9.86;85.50
41044;BME280;51680;49.806;18.774;2023-02-19T03:11:23;97059.91;;;9.84;85.44
41044;BME280;51680;49.806;18.774;2023-02-19T03:14:46;97050.31;;;9.72;85.69
41044;BME280;51680;49.806;18.774;2023-02-19T03:18:09;97054.84;;;9.56;86.24
41044;BME280;51680;49.806;18.774;2023-02-19T03:21:31;97057.50;;;9.42;86.69
41044;BME280;51680;49.806;18.774;2023-02-19T03:24:40;97049.94;;;9.25;88.08
41044;BME280;51680;49.806;18.774;2023-02-19T03:28:03;97055.75;;;9.16;88.25
41044;BME280;51680;49.806;18.774;2023-02-19T03:31:07;97036.47;;;8.92;89.83
41044;BME280;51680;49.806;18.774;2023-02-19T03:34:14;97048.94;;;8.87;89.99
41044;BME280;51680;49.806;18.774;2023-02-19T03:37:23;97058.97;;;8.93;89.79
41044;BME280;51680;49.806;18.774;2023-02-19T03:40:29;97062.50;;;8.92;89.75
41044;BME280;51680;49.806;18.774;2023-02-19T03:43:36;97059.72;;;8.95;89.65
41044;BME280;51680;49.806;18.774;2023-02-19T03:46:44;97049.41;;;8.94;89.47
41044;BME280;51680;49.806;18.774;2023-02-19T03:49:52;97043.09;;;8.84;90.38
41044;BME280;51680;49.806;18.774;2023-02-19T03:53:03;97042.34;;;8.82;90.54
41044;BME280;51680;49.806;18.774;2023-02-19T03:56:09;97030.09;;;8.84;89.83
41044;BME280;51680;49.806;18.774;2023-02-19T03:59:17;97044.47;;;8.89;89.87
41044;BME280;51680;49.806;18.774;2023-02-19T04:02:27;97031.72;;;8.99;89.41
41044;BME280;51680;49.806;18.774;2023-02-19T04:05:35;97023.06;;;8.98;89.36
41044;BME280;51680;49.806;18.774;2023-02-19T04:08:39;97021.94;;;9.02;89.36
41044;BME280;51680;49.806;18.774;2023-02-19T04:11:43;97016.19;;;8.97;89.73
41044;BME280;51680;49.806;18.774;2023-02-19T04:14:50;97015.78;;;9.03;89.27
41044;BME280;51680;49.806;18.774;2023-02-19T04:17:56;97007.34;;;9.00;89.52
41044;BME280;51680;49.806;18.774;2023-02-19T04:21:01;97008.94;;;9.02;89.21
41044;BME280;51680;49.806;18.774;2023-02-19T04:24:09;96991.63;;;9.01;89.10
41044;BME280;51680;49.806;18.774;2023-02-19T04:27:11;96990.88;;;8.99;89.32
41044;BME280;51680;49.806;18.774;2023-02-19T04:30:13;96996.63;;;9.04;89.01
41044;BME280;51680;49.806;18.774;2023-02-19T04:33:15;97002.19;;;9.12;88.63
41044;BME280;51680;49.806;18.774;2023-02-19T04:36:18;96990.34;;;9.21;88.40
41044;BME280;51680;49.806;18.774;2023-02-19T04:39:20;96996.53;;;9.32;87.59
41044;BME280;51680;49.806;18.774;2023-02-19T04:42:22;96982.09;;;9.41;87.34
41044;BME280;51680;49.806;18.774;2023-02-19T04:45:24;96980.38;;;9.40;87.39
41044;BME280;51680;49.806;18.774;2023-02-19T04:48:25;96974.13;;;9.42;87.49
41044;BME280;51680;49.806;18.774;2023-02-19T04:51:29;96982.72;;;9.44;87.10
41044;BME280;51680;49.806;18.774;2023-02-19T04:54:30;96975.72;;;9.45;87.23
41044;BME280;51680;49.806;18.774;2023-02-19T04:57:32;96974.66;;;9.47;86.89
41044;BME280;51680;49.806;18.774;2023-02-19T05:00:35;96971.25;;;9.59;86.21
41044;BME280;51680;49.806;18.774;2023-02-19T05:03:37;96973.47;;;9.65;86.03
41044;BME280;51680;49.806;18.774;2023-02-19T05:06:40;96967.09;;;9.69;86.01
41044;BME280;51680;49.806;18.774;2023-02-19T05:09:42;96971.28;;;9.72;85.23
41044;BME280;51680;49.806;18.774;2023-02-19T05:12:44;96965.44;;;9.81;85.30
41044;BME280;51680;49.806;18.774;2023-02-19T05:15:53;96957.31;;;9.85;84.52
41044;BME280;51680;49.806;18.774;2023-02-19T05:18:55;96959.72;;;9.88;84.87
41044;BME280;51680;49.806;18.774;2023-02-19T05:21:58;96950.22;;;9.87;84.52
41044;BME280;51680;49.806;18.774;2023-02-19T05:25:00;96954.59;;;9.87;84.50
41044;BME280;51680;49.806;18.774;2023-02-19T05:28:02;96953.03;;;9.84;84.81
41044;BME280;51680;49.806;18.774;2023-02-19T05:31:18;96960.84;;;9.84;84.47
41044;BME280;51680;49.806;18.774;2023-02-19T05:34:38;96938.00;;;9.88;84.73
41044;BME280;51680;49.806;18.774;2023-02-19T05:37:41;96945.31;;;9.95;84.32
41044;BME280;51680;49.806;18.774;2023-02-19T05:40:44;96951.97;;;9.99;83.81
41044;BME280;51680;49.806;18.774;2023-02-19T05:43:47;96941.88;;;9.95;84.06
41044;BME280;51680;49.806;18.774;2023-02-19T05:46:49;96942.31;;;10.01;84.19
41044;BME280;51680;49.806;18.774;2023-02-19T05:49:51;96938.59;;;10.05;83.41
41044;BME280;51680;49.806;18.774;2023-02-19T05:52:54;96947.50;;;10.01;83.83
41044;BME280;51680;49.806;18.774;2023-02-19T05:55:56;96952.94;;;9.98;83.69
41044;BME280;51680;49.806;18.774;2023-02-19T05:58:58;96946.66;;;10.01;83.58
41044;BME280;51680;49.806;18.774;2023-02-19T06:02:00;96952.94;;;9.98;84.07
41044;BME280;51680;49.806;18.774;2023-02-19T06:05:02;96943.03;;;9.91;84.82
41044;BME280;51680;49.806;18.774;2023-02-19T06:08:05;96945.31;;;9.95;84.31
41044;BME280;51680;49.806;18.774;2023-02-19T06:11:07;96961.69;;;9.97;84.38
41044;BME280;51680;49.806;18.774;2023-02-19T06:14:11;96959.44;;;10.05;84.71
41044;BME280;51680;49.806;18.774;2023-02-19T06:17:13;96967.84;;;9.96;84.87
41044;BME280;51680;49.806;18.774;2023-02-19T06:20:15;96969.00;;;9.92;85.01
41044;BME280;51680;49.806;18.774;2023-02-19T06:23:18;96975.88;;;9.93;85.16
41044;BME280;51680;49.806;18.774;2023-02-19T06:26:21;96964.06;;;9.88;85.44
41044;BME280;51680;49.806;18.774;2023-02-19T06:29:23;96971.81;;;9.89;85.81
41044;BME280;51680;49.806;18.774;2023-02-19T06:32:25;96977.53;;;9.94;85.53
41044;BME280;51680;49.806;18.774;2023-02-19T06:35:27;96971.38;;;9.95;85.47
41044;BME280;51680;49.806;18.774;2023-02-19T06:38:30;96973.78;;;9.98;86.07
41044;BME280;51680;49.806;18.774;2023-02-19T06:41:32;96973.97;;;9.95;86.41
41044;BME280;51680;49.806;18.774;2023-02-19T06:44:35;96971.09;;;9.87;86.98
41044;BME280;51680;49.806;18.774;2023-02-19T06:47:36;96959.19;;;9.83;87.24
41044;BME280;51680;49.806;18.774;2023-02-19T06:50:38;96963.38;;;9.86;87.07
41044;BME280;51680;49.806;18.774;2023-02-19T06:54:00;96961.19;;;9.80;87.48
41044;BME280;51680;49.806;18.774;2023-02-19T06:57:02;96956.69;;;9.82;87.40
41044;BME280;51680;49.806;18.774;2023-02-19T07:00:05;96955.75;;;9.83;87.75
41044;BME280;51680;49.806;18.774;2023-02-19T07:03:08;96953.78;;;9.86;87.93
41044;BME280;51680;49.806;18.774;2023-02-19T07:06:10;96957.53;;;9.82;87.91
41044;BME280;51680;49.806;18.774;2023-02-19T07:09:13;96951.88;;;9.88;87.76
41044;BME280;51680;49.806;18.774;2023-02-19T07:12:14;96938.34;;;9.83;87.88
41044;BME280;51680;49.806;18.774;2023-02-19T07:15:16;96940.84;;;9.85;87.59
41044;BME280;51680;49.806;18.774;2023-02-19T07:18:18;96943.34;;;9.86;87.73
41044;BME280;51680;49.806;18.774;2023-02-19T07:21:20;96944.16;;;9.87;87.88
41044;BME280;51680;49.806;18.774;2023-02-19T07:24:23;96940.53;;;9.89;87.84
41044;BME280;51680;49.806;18.774;2023-02-19T07:27:25;96941.66;;;9.85;88.04
41044;BME280;51680;49.806;18.774;2023-02-19T07:30:26;96936.97;;;9.90;87.81
41044;BME280;51680;49.806;18.774;2023-02-19T07:33:28;96934.28;;;9.79;88.68
41044;BME280;51680;49.806;18.774;2023-02-19T07:36:30;96940.44;;;9.78;88.60
41044;BME280;51680;49.806;18.774;2023-02-19T07:39:33;96927.59;;;9.75;88.74
41044;BME280;51680;49.806;18.774;2023-02-19T07:42:35;96932.50;;;9.80;88.86
41044;BME280;51680;49.806;18.774;2023-02-19T07:45:37;96922.69;;;9.83;88.36
41044;BME280;51680;49.806;18.774;2023-02-19T07:48:58;96919.78;;;9.75;88.92
41044;BME280;51680;49.806;18.774;2023-02-19T07:52:00;96915.06;;;9.80;88.69
41044;BME280;51680;49.806;18.774;2023-02-19T07:55:03;96916.03;;;9.79;88.89
41044;BME280;51680;49.806;18.774;2023-02-19T07:58:05;96921.66;;;9.73;89.53
41044;BME280;51680;49.806;18.774;2023-02-19T08:01:09;96918.97;;;9.75;89.13
41044;BME280;51680;49.806;18.774;2023-02-19T08:04:12;96909.88;;;9.80;89.37
41044;BME280;51680;49.806;18.774;2023-02-19T08:07:13;96907.06;;;9.83;89.43
41044;BME280;51680;49.806;18.774;2023-02-19T08:10:16;96910.38;;;9.85;89.63
41044;BME280;51680;49.806;18.774;2023-02-19T08:13:36;96905.28;;;9.96;89.16
41044;BME280;51680;49.806;18.774;2023-02-19T08:16:37;96899.47;;;10.05;89.35
41044;BME280;51680;49.806;18.774;2023-02-19T08:19:39;96904.84;;;10.02;89.24
41044;BME280;51680;49.806;18.774;2023-02-19T08:22:41;96897.56;;;10.07;89.44
41044;BME280;51680;49.806;18.774;2023-02-19T08:25:46;96909.31;;;10.00;89.65
41044;BME280;51680;49.806;18.774;2023-02-19T08:28:48;96893.69;;;9.88;91.65
41044;BME280;51680;49.806;18.774;2023-02-19T08:31:50;96902.44;;;9.99;90.08
41044;BME280;51680;49.806;18.774;2023-02-19T08:34:51;96897.69;;;10.06;90.23
41044;BME280;51680;49.806;18.774;2023-02-19T08:37:54;96885.75;;;10.14;89.50
41044;BME280;51680;49.806;18.774;2023-02-19T08:40:57;96886.81;;;10.24;89.37
41044;BME280;51680;49.806;18.774;2023-02-19T08:43:59;96887.41;;;10.28;89.75
41044;BME280;51680;49.806;18.774;2023-02-19T08:47:02;96880.53;;;10.27;89.61
41044;BME280;51680;49.806;18.774;2023-02-19T08:50:05;96873.03;;;10.22;89.64
41044;BME280;51680;49.806;18.774;2023-02-19T08:53:07;96862.59;;;10.22;89.76
41044;BME280;51680;49.806;18.774;2023-02-19T08:56:12;96863.38;;;10.35;89.30
41044;BME280;51680;49.806;18.774;2023-02-19T08:59:15;96872.44;;;10.42;89.25
41044;BME280;51680;49.806;18.774;2023-02-19T09:02:18;96857.06;;;10.50;88.96
41044;BME280;51680;49.806;18.774;2023-02-19T09:05:20;96856.47;;;10.47;88.96
41044;BME280;51680;49.806;18.774;2023-02-19T09:08:22;96847.78;;;10.46;88.68
41044;BME280;51680;49.806;18.774;2023-02-19T09:11:25;96862.09;;;10.41;89.45
41044;BME280;51680;49.806;18.774;2023-02-19T09:14:30;96864.19;;;10.36;89.09
41044;BME280;51680;49.806;18.774;2023-02-19T09:17:32;96856.00;;;10.29;89.33
41044;BME280;51680;49.806;18.774;2023-02-19T09:20:33;96865.69;;;10.27;88.93
41044;BME280;51680;49.806;18.774;2023-02-19T09:23:35;96856.94;;;10.28;89.32
41044;BME280;51680;49.806;18.774;2023-02-19T09:26:39;96866.53;;;10.28;89.77
41044;BME280;51680;49.806;18.774;2023-02-19T09:29:40;96868.00;;;10.32;89.50
41044;BME280;51680;49.806;18.774;2023-02-19T09:32:42;96871.72;;;10.40;89.37
41044;BME280;51680;49.806;18.774;2023-02-19T09:35:44;96879.84;;;10.48;89.26
41044;BME280;51680;49.806;18.774;2023-02-19T09:38:46;96879.41;;;10.54;89.51
41044;BME280;51680;49.806;18.774;2023-02-19T09:41:51;96872.50;;;10.53;89.48
41044;BME280;51680;49.806;18.774;2023-02-19T09:44:56;96872.00;;;10.48;89.41
41044;BME280;51680;49.806;18.774;2023-02-19T09:47:58;96878.44;;;10.55;89.29
41044;BME280;51680;49.806;18.774;2023-02-19T09:51:00;96889.97;;;10.64;88.94
41044;BME280;51680;49.806;18.774;2023-02-19T09:54:03;96888.31;;;10.63;89.02
41044;BME280;51680;49.806;18.774;2023-02-19T09:57:13;96890.94;;;10.63;89.38
41044;BME280;51680;49.806;18.774;2023-02-19T10:00:20;96894.09;;;10.55;88.59
41044;BME280;51680;49.806;18.774;2023-02-19T10:03:26;96895.69;;;10.45;89.00
41044;BME280;51680;49.806;18.774;2023-02-19T10:06:31;96896.16;;;10.39;88.51
41044;BME280;51680;49.806;18.774;2023-02-19T10:09:36;96918.78;;;10.39;88.89
41044;BME280;51680;49.806;18.774;2023-02-19T10:12:45;96932.69;;;10.39;87.96
41044;BME280;51680;49.806;18.774;2023-02-19T10:15:50;96937.66;;;10.42;87.42
41044;BME280;51680;49.806;18.774;2023-02-19T10:18:52;96957.59;;;10.43;87.29
41044;BME280;51680;49.806;18.774;2023-02-19T10:21:54;96958.53;;;10.42;87.18
41044;BME280;51680;49.806;18.774;2023-02-19T10:24:56;96955.41;;;10.37;86.81
41044;BME280;51680;49.806;18.774;2023-02-19T10:28:01;96976.91;;;10.28;86.61
41044;BME280;51680;49.806;18.774;2023-02-19T10:31:10;96974.94;;;10.19;87.17
41044;BME280;51680;49.806;18.774;2023-02-19T10:34:19;96981.19;;;10.17;86.89
41044;BME280;51680;49.806;18.774;2023-02-19T10:37:21;96996.25;;;10.13;86.36
41044;BME280;51680;49.806;18.774;2023-02-19T10:40:24;96994.56;;;10.12;86.63
41044;BME280;51680;49.806;18.774;2023-02-19T10:43:29;97009.59;;;10.09;86.20
41044;BME280;51680;49.806;18.774;2023-02-19T10:46:34;97000.50;;;10.14;85.90
41044;BME280;51680;49.806;18.774;2023-02-19T10:49:39;97010.31;;;10.11;85.17
41044;BME280;51680;49.806;18.774;2023-02-19T10:52:42;97009.50;;;10.10;84.99
41044;BME280;51680;49.806;18.774;2023-02-19T10:55:44;97013.78;;;10.11;84.81
41044;BME280;51680;49.806;18.774;2023-02-19T10:58:47;97024.22;;;10.11;85.11
41044;BME280;51680;49.806;18.774;2023-02-19T11:01:54;97023.47;;;10.09;85.28
41044;BME280;51680;49.806;18.774;2023-02-19T11:05:17;97026.81;;;10.11;85.35
41044;BME280;51680;49.806;18.774;2023-02-19T11:08:20;97027.63;;;10.12;85.30
41044;BME280;51680;49.806;18.774;2023-02-19T11:11:26;97035.97;;;10.17;85.62
41044;BME280;51680;49.806;18.774;2023-02-19T11:14:31;97046.81;;;10.23;84.89
41044;BME280;51680;49.806;18.774;2023-02-19T11:17:57;97041.72;;;10.22;84.81
41044;BME280;51680;49.806;18.774;2023-02-19T11:21:00;97045.16;;;10.22;84.92
41044;BME280;51680;49.806;18.774;2023-02-19T11:24:03;97047.06;;;10.20;85.16
41044;BME280;51680;49.806;18.774;2023-02-19T11:27:06;97055.78;;;10.19;84.88
41044;BME280;51680;49.806;18.774;2023-02-19T11:30:31;97054.88;;;10.20;85.10
41044;BME280;51680;49.806;18.774;2023-02-19T11:33:33;97070.00;;;10.15;85.04
41044;BME280;51680;49.806;18.774;2023-02-19T11:36:36;97069.34;;;10.12;84.81
41044;BME280;51680;49.806;18.774;2023-02-19T11:39:39;97080.81;;;10.09;84.46
41044;BME280;51680;49.806;18.774;2023-02-19T11:42:42;97082.22;;;9.88;84.55
41044;BME280;51680;49.806;18.774;2023-02-19T11:45:57;97094.84;;;9.94;84.30
41044;BME280;51680;49.806;18.774;2023-02-19T11:49:12;97100.06;;;9.94;84.59
41044;BME280;51680;49.806;18.774;2023-02-19T11:52:26;97104.25;;;9.97;84.35
41044;BME280;51680;49.806;18.774;2023-02-19T11:55:42;97101.44;;;10.00;84.44
41044;BME280;51680;49.806;18.774;2023-02-19T11:59:04;97105.25;;;10.08;83.71
41044;BME280;51680;49.806;18.774;2023-02-19T12:02:26;97110.88;;;10.15;83.57
41044;BME280;51680;49.806;18.774;2023-02-19T12:05:39;97114.22;;;10.17;83.39
41044;BME280;51680;49.806;18.774;2023-02-19T12:09:05;97117.16;;;10.12;82.99
41044;BME280;51680;49.806;18.774;2023-02-19T12:12:23;97112.78;;;10.13;83.65
41044;BME280;51680;49.806;18.774;2023-02-19T12:15:36;97120.28;;;10.17;83.44
41044;BME280;51680;49.806;18.774;2023-02-19T12:19:10;97120.28;;;10.17;82.54
41044;BME280;51680;49.806;18.774;2023-02-19T12:22:24;97124.88;;;10.14;82.94
41044;BME280;51680;49.806;18.774;2023-02-19T12:25:37;97132.78;;;10.12;82.88
41044;BME280;51680;49.806;18.774;2023-02-19T12:28:55;97146.03;;;10.09;82.66
41044;BME280;51680;49.806;18.774;2023-02-19T12:32:15;97157.69;;;10.04;83.06
41044;BME280;51680;49.806;18.774;2023-02-19T12:35:36;97154.41;;;10.00;82.90
41044;BME280;51680;49.806;18.774;2023-02-19T12:38:43;97164.00;;;9.87;82.57
41044;BME280;51680;49.806;18.774;2023-02-19T12:41:53;97156.94;;;9.75;82.07
41044;BME280;51680;49.806;18.774;2023-02-19T12:45:03;97161.19;;;9.64;82.34
41044;BME280;51680;49.806;18.774;2023-02-19T12:48:14;97163.72;;;9.51;82.08
41044;BME280;51680;49.806;18.774;2023-02-19T12:51:21;97155.03;;;9.38;82.46
41044;BME280;51680;49.806;18.774;2023-02-19T12:54:26;97170.13;;;9.19;82.28
41044;BME280;51680;49.806;18.774;2023-02-19T12:57:33;97171.72;;;9.08;82.16
41044;BME280;51680;49.806;18.774;2023-02-19T13:00:40;97185.22;;;9.00;82.35
41044;BME280;51680;49.806;18.774;2023-02-19T13:03:47;97179.53;;;8.94;82.47
41044;BME280;51680;49.806;18.774;2023-02-19T13:06:56;97184.19;;;8.89;82.45
41044;BME280;51680;49.806;18.774;2023-02-19T13:10:11;97195.25;;;8.78;82.37
41044;BME280;51680;49.806;18.774;2023-02-19T13:13:19;97209.56;;;8.71;82.57
41044;BME280;51680;49.806;18.774;2023-02-19T13:16:23;97207.28;;;8.65;82.32
41044;BME280;51680;49.806;18.774;2023-02-19T13:19:26;97212.47;;;8.51;81.88
41044;BME280;51680;49.806;18.774;2023-02-19T13:22:37;97226.78;;;8.44;81.48
41044;BME280;51680;49.806;18.774;2023-02-19T13:26:14;97237.88;;;8.32;81.77
41044;BME280;51680;49.806;18.774;2023-02-19T13:29:30;97238.16;;;8.28;81.22
41044;BME280;51680;49.806;18.774;2023-02-19T13:32:56;97239.81;;;8.13;80.90
41044;BME280;51680;49.806;18.774;2023-02-19T13:36:11;97253.38;;;8.04;80.77
41044;BME280;51680;49.806;18.774;2023-02-19T13:39:18;97263.41;;;7.95;81.06
41044;BME280;51680;49.806;18.774;2023-02-19T13:42:24;97265.34;;;7.91;81.21
41044;BME280;51680;49.806;18.774;2023-02-19T13:45:32;97265.44;;;7.90;80.65
41044;BME280;51680;49.806;18.774;2023-02-19T13:48:36;97275.31;;;7.83;80.33
41044;BME280;51680;49.806;18.774;2023-02-19T13:51:46;97283.88;;;7.85;80.84
41044;BME280;51680;49.806;18.774;2023-02-19T13:54:50;97283.69;;;7.88;80.77
41044;BME280;51680;49.806;18.774;2023-02-19T13:57:52;97285.38;;;7.89;80.78
41044;BME280;51680;49.806;18.774;2023-02-19T14:00:53;97291.25;;;7.93;80.64
41044;BME280;51680;49.806;18.774;2023-02-19T14:04:06;97291.94;;;7.96;80.04
41044;BME280;51680;49.806;18.774;2023-02-19T14:07:47;97292.44;;;7.87;79.10
41044;BME280;51680;49.806;18.774;2023-02-19T14:10:55;97299.78;;;7.79;79.90
41044;BME280;51680;49.806;18.774;2023-02-19T14:14:24;97311.44;;;7.72;79.79
41044;BME280;51680;49.806;18.774;2023-02-19T14:17:28;97307.09;;;7.57;80.01
41044;BME280;51680;49.806;18.774;2023-02-19T14:20:40;97319.03;;;7.44;79.83
41044;BME280;51680;49.806;18.774;2023-02-19T14:23:44;97332.94;;;7.43;79.41
41044;BME280;51680;49.806;18.774;2023-02-19T14:26:55;97342.47;;;7.43;79.45
41044;BME280;51680;49.806;18.774;2023-02-19T14:30:16;97349.06;;;7.33;79.45
41044;BME280;51680;49.806;18.774;2023-02-19T14:33:21;97364.78;;;7.30;79.16
41044;BME280;51680;49.806;18.774;2023-02-19T14:36:33;97377.41;;;7.20;79.32
41044;BME280;51680;49.806;18.774;2023-02-19T14:39:36;97379.28;;;7.18;79.81
41044;BME280;51680;49.806;18.774;2023-02-19T14:42:40;97393.44;;;7.11;78.93
41044;BME280;51680;49.806;18.774;2023-02-19T14:45:44;97399.72;;;7.07;79.16
41044;BME280;51680;49.806;18.774;2023-02-19T14:48:48;97402.38;;;7.06;79.22
41044;BME280;51680;49.806;18.774;2023-02-19T14:51:52;97411.88;;;7.07;78.37
41044;BME280;51680;49.806;18.774;2023-02-19T14:54:58;97403.97;;;7.08;78.28
41044;BME280;51680;49.806;18.774;2023-02-19T14:58:05;97405.69;;;7.09;78.13
41044;BME280;51680;49.806;18.774;2023-02-19T15:01:25;97416.19;;;7.06;77.85
41044;BME280;51680;49.806;18.774;2023-02-19T15:04:29;97414.13;;;6.96;78.36
41044;BME280;51680;49.806;18.774;2023-02-19T15:07:32;97424.88;;;6.88;78.43
41044;BME280;51680;49.806;18.774;2023-02-19T15:10:35;97424.28;;;6.83;78.55
41044;BME280;51680;49.806;18.774;2023-02-19T15:13:38;97418.91;;;6.69;77.46
41044;BME280;51680;49.806;18.774;2023-02-19T15:16:46;97418.47;;;6.61;77.83
41044;BME280;51680;49.806;18.774;2023-02-19T15:19:48;97424.50;;;6.43;77.76
41044;BME280;51680;49.806;18.774;2023-02-19T15:22:50;97424.22;;;6.49;78.06
41044;BME280;51680;49.806;18.774;2023-02-19T15:25:52;97434.28;;;6.55;78.22
41044;BME280;51680;49.806;18.774;2023-02-19T15:29:01;97434.16;;;6.58;78.45
41044;BME280;51680;49.806;18.774;2023-02-19T15:32:16;97438.13;;;6.65;78.15
41044;BME280;51680;49.806;18.774;2023-02-19T15:35:19;97444.09;;;6.67;77.95
41044;BME280;51680;49.806;18.774;2023-02-19T15:38:23;97446.25;;;6.76;77.76
41044;BME280;51680;49.806;18.774;2023-02-19T15:41:31;97449.66;;;6.77;77.91
41044;BME280;51680;49.806;18.774;2023-02-19T15:44:40;97453.34;;;6.73;77.82
41044;BME280;51680;49.806;18.774;2023-02-19T15:47:47;97462.88;;;6.72;77.86
41044;BME280;51680;49.806;18.774;2023-02-19T15:50:55;97472.38;;;6.72;77.85
41044;BME280;51680;49.806;18.774;2023-02-19T15:54:03;97472.25;;;6.75;77.80
41044;BME280;51680;49.806;18.774;2023-02-19T15:57:15;97480.78;;;6.77;77.43
41044;BME280;51680;49.806;18.774;2023-02-19T16:00:24;97492.94;;;6.76;77.24
41044;BME280;51680;49.806;18.774;2023-02-19T16:03:28;97506.59;;;6.80;76.89
41044;BME280;51680;49.806;18.774;2023-02-19T16:06:50;97512.47;;;6.83;76.74
41044;BME280;51680;49.806;18.774;2023-02-19T16:10:18;97520.63;;;6.76;76.30
41044;BME280;51680;49.806;18.774;2023-02-19T16:13:22;97516.47;;;6.72;76.63
41044;BME280;51680;49.806;18.774;2023-02-19T16:16:27;97522.81;;;6.66;76.42
41044;BME280;51680;49.806;18.774;2023-02-19T16:19:41;97528.88;;;6.65;76.57
41044;BME280;51680;49.806;18.774;2023-02-19T16:22:44;97534.31;;;6.61;77.14